Cherryvale, Kansas
Current Conditions -  °F | °C
As of 3:52 PM on Friday 31 Oct 2014 (Local Time) from KPPF Reporting Station
Clear Clear  
Wind Chill: 50°   Ceiling: Unl
Heat Index: 50°   Visibility: 10mi
Dew Point: 20°   Wind: 14mph
Humidity: 31%   Direction: 360°N
Pressure: 30.43"   Gusts: 18mph
Location:  37.27°N, 95.55°W
Report Text: KPPF 312052Z AUTO 36012G16KT 10SM CLR 10/M07 A3043 RMK AO2 SLP305 T01001067 55014
Loading
Personal Weather Stations






























Interactive Weather Map
Tropical Storm Tracking
New forecast layout! Learn more

10-Day Weather Forecast

Advertisements
Track Severe Weather on mobile